createdAt,value
2018-04-12T00:00:37.439Z,5.27
2018-04-12T00:03:05.140Z,4.30
2018-04-12T00:05:32.756Z,4.30
2018-04-12T00:08:00.360Z,3.70
2018-04-12T00:10:27.925Z,3.90
2018-04-12T00:12:55.472Z,3.87
2018-04-12T00:15:23.591Z,3.80
2018-04-12T00:17:51.178Z,4.10
2018-04-12T00:20:18.792Z,5.13
2018-04-12T00:22:46.349Z,6.93
2018-04-12T00:25:14.455Z,5.00
2018-04-12T00:27:42.013Z,4.77
2018-04-12T00:30:09.652Z,3.90
2018-04-12T00:32:37.224Z,4.50
2018-04-12T00:35:04.880Z,4.30
2018-04-12T00:37:34.705Z,4.40
2018-04-12T00:40:02.249Z,3.80
2018-04-12T00:42:30.061Z,3.83
2018-04-12T00:44:57.633Z,4.30
2018-04-12T00:47:25.204Z,4.70
2018-04-12T00:49:52.799Z,4.50
2018-04-12T00:52:20.393Z,5.60
2018-04-12T00:54:47.952Z,5.03
2018-04-12T00:57:16.087Z,5.27
2018-04-12T00:59:43.651Z,4.83
2018-04-12T01:02:11.197Z,5.60
2018-04-12T01:04:38.725Z,5.47
2018-04-12T01:07:06.761Z,4.90
2018-04-12T01:09:34.839Z,4.50
2018-04-12T01:12:02.373Z,4.23
2018-04-12T01:14:29.944Z,5.13
2018-04-12T01:16:57.481Z,4.73
2018-04-12T01:19:25.412Z,4.87
2018-04-12T01:21:52.997Z,3.90
2018-04-12T01:24:20.533Z,4.60
2018-04-12T01:26:48.065Z,3.70
2018-04-12T01:29:16.219Z,5.27
2018-04-12T01:31:43.750Z,5.03
2018-04-12T01:34:11.235Z,4.50
2018-04-12T01:36:38.743Z,4.43
2018-04-12T01:39:06.626Z,5.00
2018-04-12T01:41:34.560Z,4.40
2018-04-12T01:44:02.132Z,4.23
2018-04-12T01:46:29.707Z,4.40
2018-04-12T01:48:57.282Z,5.30
2018-04-12T01:51:24.919Z,4.27
2018-04-12T01:53:52.726Z,4.50
2018-04-12T01:56:20.305Z,4.73
2018-04-12T01:58:47.853Z,4.50
2018-04-12T02:01:15.388Z,3.73
2018-04-12T02:03:45.065Z,4.17
2018-04-12T02:06:12.822Z,4.70
2018-04-12T02:08:40.351Z,4.70
2018-04-12T02:11:07.941Z,4.80
2018-04-12T02:13:39.037Z,4.23
2018-04-12T02:16:06.629Z,4.67
2018-04-12T02:18:35.329Z,5.70
2018-04-12T02:21:02.947Z,4.47
2018-04-12T02:23:33.442Z,4.97
2018-04-12T02:26:03.506Z,4.13
2018-04-12T02:28:32.479Z,4.23
2018-04-12T02:31:03.168Z,4.97
2018-04-12T02:33:30.920Z,5.03
2018-04-12T02:35:59.786Z,4.87
2018-04-12T02:38:30.407Z,4.60
2018-04-12T02:40:57.990Z,4.60
2018-04-12T02:43:25.955Z,4.40
2018-04-12T02:45:57.241Z,5.43
2018-04-12T02:48:28.245Z,5.43
2018-04-12T02:50:55.904Z,4.73
2018-04-12T02:53:26.036Z,4.67
2018-04-12T02:55:56.135Z,5.77
2018-04-12T02:58:23.816Z,6.90
2018-04-12T03:00:51.810Z,5.80
2018-04-12T03:03:22.305Z,5.83
2018-04-12T03:05:50.262Z,6.43
2018-04-12T03:08:17.829Z,6.10
2018-04-12T03:10:45.365Z,7.00
2018-04-12T03:13:12.918Z,6.23
2018-04-12T03:15:40.471Z,6.87
2018-04-12T03:18:08.017Z,5.80
2018-04-12T03:23:26.735Z,5.00
2018-04-12T03:25:54.493Z,6.03
2018-04-12T03:28:22.069Z,8.37
2018-04-12T03:30:55.151Z,9.23
2018-04-12T03:33:29.622Z,7.37
2018-04-12T03:36:02.678Z,7.20
2018-04-12T03:38:31.565Z,6.10
2018-04-12T03:40:59.327Z,5.60
2018-04-12T03:43:27.200Z,5.40
2018-04-12T03:45:56.112Z,5.63
2018-04-12T03:48:23.646Z,5.20
2018-04-12T03:50:52.915Z,7.50
2018-04-12T03:53:20.628Z,7.40
2018-04-12T03:55:48.163Z,8.80
2018-04-12T03:58:15.715Z,6.67
2018-04-12T04:00:46.112Z,6.60
2018-04-12T04:03:13.672Z,5.60
2018-04-12T04:05:41.272Z,6.10
2018-04-12T04:08:08.797Z,7.47
2018-04-12T04:10:36.354Z,6.87
2018-04-12T04:13:04.615Z,6.00
2018-04-12T04:15:43.963Z,8.47
2018-04-12T04:18:23.249Z,6.17
2018-04-12T04:23:51.286Z,7.10
2018-04-12T04:26:18.838Z,7.63
2018-04-12T04:28:46.396Z,7.10
2018-04-12T04:31:14.052Z,7.47
2018-04-12T04:33:41.613Z,7.03
2018-04-12T04:36:11.677Z,9.90
2018-04-12T04:38:39.214Z,9.40
2018-04-12T04:41:06.913Z,7.20
2018-04-12T04:43:35.660Z,7.67
2018-04-12T04:46:04.868Z,9.70
2018-04-12T04:48:33.498Z,7.90
2018-04-12T04:51:01.203Z,8.43
2018-04-12T04:53:28.737Z,9.53
2018-04-12T04:55:56.953Z,7.20
2018-04-12T04:58:24.484Z,8.10
2018-04-12T05:00:52.045Z,8.13
2018-04-12T05:03:20.204Z,6.93
2018-04-12T05:05:47.781Z,7.37
2018-04-12T05:08:15.444Z,6.63
2018-04-12T05:10:43.012Z,7.63
2018-04-12T05:13:11.617Z,6.23
2018-04-12T05:15:39.469Z,7.00
2018-04-12T05:18:07.159Z,8.10
2018-04-12T05:20:34.698Z,8.03
2018-04-12T05:23:02.263Z,7.87
2018-04-12T05:25:30.587Z,7.67
2018-04-12T05:27:58.186Z,9.27
2018-04-12T05:30:25.751Z,7.40
2018-04-12T05:32:53.292Z,7.47
2018-04-12T05:35:21.723Z,14.30
2018-04-12T05:37:50.072Z,17.90
2018-04-12T05:40:18.023Z,11.30
2018-04-12T05:42:45.596Z,9.67
2018-04-12T05:45:13.872Z,8.70
2018-04-12T05:47:41.968Z,10.10
2018-04-12T05:50:09.542Z,9.50
2018-04-12T05:52:38.462Z,12.20
2018-04-12T05:55:06.129Z,7.53
2018-04-12T05:57:33.689Z,5.70
2018-04-12T06:00:01.290Z,9.30
2018-04-12T06:02:32.366Z,6.70
2018-04-12T06:05:00.057Z,6.47
2018-04-12T06:07:27.574Z,6.37
2018-04-12T06:09:56.248Z,7.50
2018-04-12T06:12:26.556Z,7.37
2018-04-12T06:14:56.141Z,6.60
2018-04-12T06:17:23.682Z,7.50
2018-04-12T06:19:53.241Z,9.07
2018-04-12T06:22:20.804Z,7.40
2018-04-12T06:24:48.351Z,5.87
2018-04-12T06:27:16.433Z,6.83
2018-04-12T06:29:47.296Z,7.50
2018-04-12T06:32:18.395Z,6.13
2018-04-12T06:34:48.310Z,6.33
2018-04-12T06:37:15.904Z,7.10
2018-04-12T06:39:44.154Z,6.87
2018-04-12T06:42:13.001Z,7.00
2018-04-12T06:44:45.792Z,9.17
2018-04-12T06:47:13.777Z,6.27
2018-04-12T06:49:47.720Z,5.97
2018-04-12T06:52:16.661Z,6.07
2018-04-12T06:54:45.685Z,6.47
2018-04-12T06:57:17.457Z,5.77
2018-04-12T06:59:46.463Z,5.57
2018-04-12T07:02:14.114Z,4.83
2018-04-12T07:04:43.964Z,5.50
2018-04-12T07:07:15.056Z,4.37
2018-04-12T07:09:43.663Z,4.67
2018-04-12T07:12:11.854Z,4.73
2018-04-12T07:14:40.678Z,5.47
2018-04-12T07:17:09.242Z,4.73
2018-04-12T07:19:37.499Z,5.53
2018-04-12T07:22:05.069Z,6.10
2018-04-12T07:24:34.739Z,4.97
2018-04-12T07:27:04.136Z,5.57
2018-04-12T07:29:31.760Z,4.43
2018-04-12T07:31:59.304Z,5.57
2018-04-12T07:34:27.270Z,4.80
2018-04-12T07:37:00.514Z,6.50
2018-04-12T07:39:28.186Z,5.40
2018-04-12T07:41:56.598Z,4.40
2018-04-12T07:44:24.460Z,4.60
2018-04-12T07:46:53.893Z,5.40
2018-04-12T07:49:21.554Z,3.87
2018-04-12T07:51:49.097Z,4.10
2018-04-12T07:54:16.711Z,4.30
2018-04-12T07:56:45.353Z,5.20
2018-04-12T07:59:15.647Z,4.30
2018-04-12T08:01:44.076Z,4.50
2018-04-12T08:04:11.779Z,4.50
2018-04-12T08:06:40.613Z,5.53
2018-04-12T08:09:08.549Z,3.50
2018-04-12T08:11:41.005Z,4.93
2018-04-12T08:14:08.927Z,4.37
2018-04-12T08:16:36.780Z,4.00
2018-04-12T08:19:06.286Z,3.97
2018-04-12T08:21:34.197Z,4.53
2018-04-12T08:24:01.868Z,4.50
2018-04-12T08:26:29.416Z,4.00
2018-04-12T08:28:56.969Z,8.13
2018-04-12T08:31:24.706Z,10.73
2018-04-12T08:33:52.417Z,4.07
2018-04-12T08:36:28.557Z,4.00
2018-04-12T08:38:56.147Z,9.87
2018-04-12T08:41:23.966Z,4.27
2018-04-12T08:43:54.130Z,3.93
2018-04-12T08:46:23.759Z,4.23
2018-04-12T08:48:51.291Z,6.10
2018-04-12T08:51:19.049Z,4.13
2018-04-12T08:53:48.644Z,3.70
2018-04-12T08:56:16.455Z,3.70
2018-04-12T08:58:44.418Z,4.07
2018-04-12T09:01:11.991Z,3.70
2018-04-12T09:03:41.049Z,3.87
2018-04-12T09:06:11.162Z,4.07
2018-04-12T09:08:42.928Z,4.60
2018-04-12T09:11:10.823Z,3.67
2018-04-12T09:13:38.468Z,3.50
2018-04-12T09:16:06.365Z,3.13
2018-04-12T09:18:36.139Z,2.80
2018-04-12T09:21:05.689Z,3.87
2018-04-12T09:23:33.610Z,4.27
2018-04-12T09:26:02.878Z,3.37
2018-04-12T09:28:32.181Z,3.77
2018-04-12T09:31:01.310Z,3.07
2018-04-12T09:33:31.547Z,3.50
2018-04-12T09:36:03.348Z,3.33
2018-04-12T09:38:33.366Z,4.37
2018-04-12T09:41:01.153Z,3.30
2018-04-12T09:43:28.682Z,2.70
2018-04-12T09:45:57.536Z,3.57
2018-04-12T09:48:25.054Z,3.07
2018-04-12T09:50:52.548Z,3.73
2018-04-12T09:53:21.205Z,3.20
2018-04-12T09:55:48.765Z,3.87
2018-04-12T09:58:17.419Z,2.83
2018-04-12T10:00:57.520Z,2.93
2018-04-12T10:03:28.576Z,3.03
2018-04-12T10:06:06.679Z,2.70
2018-04-12T10:11:51.213Z,3.03
2018-04-12T10:14:20.658Z,4.57
2018-04-12T10:16:49.338Z,2.80
2018-04-12T10:19:18.545Z,2.50
2018-04-12T10:21:51.064Z,4.17
2018-04-12T10:24:28.251Z,3.33
2018-04-12T10:27:01.843Z,4.30
2018-04-12T10:29:30.307Z,2.60
2018-04-12T10:31:58.620Z,3.10
2018-04-12T10:34:29.577Z,3.20
2018-04-12T10:37:02.334Z,2.47
2018-04-12T10:39:33.939Z,3.30
2018-04-12T10:42:08.063Z,2.40
2018-04-12T10:44:38.350Z,2.97
2018-04-12T10:47:09.980Z,3.57
2018-04-12T10:49:37.945Z,2.90
2018-04-12T10:52:05.677Z,2.63
2018-04-12T10:54:33.975Z,3.03
2018-04-12T10:57:03.818Z,3.47
2018-04-12T10:59:32.019Z,4.93
2018-04-12T11:02:04.320Z,3.00
2018-04-12T11:04:37.370Z,3.37
2018-04-12T11:07:11.242Z,3.53
2018-04-12T11:09:38.786Z,2.90
2018-04-12T11:12:09.398Z,4.90
2018-04-12T11:14:39.401Z,3.73
2018-04-12T11:17:09.369Z,3.87
2018-04-12T11:19:37.794Z,4.00
2018-04-12T11:22:05.371Z,3.60
2018-04-12T11:24:35.449Z,3.97
2018-04-12T11:27:05.580Z,4.70
2018-04-12T11:29:34.098Z,2.53
2018-04-12T11:32:03.347Z,3.30
2018-04-12T11:34:31.820Z,3.53
2018-04-12T11:37:01.251Z,3.63
2018-04-12T11:39:29.349Z,3.23
2018-04-12T11:41:59.024Z,4.27
2018-04-12T11:44:26.752Z,4.10
2018-04-12T11:46:56.109Z,3.70
2018-04-12T11:49:26.197Z,5.90
2018-04-12T11:51:54.063Z,4.77
2018-04-12T11:54:22.120Z,4.80
2018-04-12T11:56:51.154Z,3.50
2018-04-12T11:59:18.725Z,4.47
2018-04-12T12:01:47.815Z,4.17
2018-04-12T12:04:15.870Z,4.13
2018-04-12T12:06:44.399Z,4.53
2018-04-12T12:09:12.782Z,4.47
2018-04-12T12:11:42.226Z,5.23
2018-04-12T12:14:10.218Z,7.20
2018-04-12T12:16:38.068Z,3.33
2018-04-12T12:19:06.685Z,4.20
2018-04-12T12:21:35.080Z,4.50
2018-04-12T12:24:03.097Z,4.27
2018-04-12T12:26:30.609Z,3.80
2018-04-12T12:28:58.185Z,16.60
2018-04-12T12:31:25.848Z,3.87
2018-04-12T12:33:54.832Z,4.13
2018-04-12T12:36:23.488Z,3.80
2018-04-12T12:38:51.043Z,3.80
2018-04-12T12:41:18.926Z,4.20
2018-04-12T12:43:47.792Z,3.83
2018-04-12T12:46:15.371Z,3.80
2018-04-12T12:48:44.782Z,3.60
2018-04-12T12:51:14.005Z,3.00
2018-04-12T12:53:42.652Z,4.37
2018-04-12T12:56:10.140Z,3.63
2018-04-12T12:58:38.509Z,4.70
2018-04-12T13:01:07.807Z,3.87
2018-04-12T13:03:36.034Z,3.97
2018-04-12T13:06:04.735Z,3.13
2018-04-12T13:08:37.828Z,4.90
2018-04-12T13:11:05.563Z,4.87
2018-04-12T13:13:33.223Z,5.90
2018-04-12T13:16:03.830Z,6.10
2018-04-12T13:18:31.397Z,3.53
2018-04-12T13:20:58.988Z,4.40
2018-04-12T13:23:26.578Z,3.70
2018-04-12T13:25:54.140Z,8.07
2018-04-12T13:28:21.684Z,4.00
2018-04-12T13:30:49.220Z,3.87
2018-04-12T13:33:16.808Z,4.67
2018-04-12T13:35:44.325Z,4.60
2018-04-12T13:38:11.903Z,4.40
2018-04-12T13:40:39.444Z,4.37
2018-04-12T13:43:07.001Z,4.60
2018-04-12T13:45:34.549Z,5.17
2018-04-12T13:48:02.094Z,4.47
2018-04-12T13:50:29.655Z,5.10
2018-04-12T13:52:57.220Z,4.50
2018-04-12T13:55:24.700Z,5.83
2018-04-12T13:57:52.206Z,5.03
2018-04-12T14:00:19.721Z,5.67
2018-04-12T14:02:47.250Z,3.70
2018-04-12T14:05:14.775Z,4.63
2018-04-12T14:07:42.475Z,7.20
2018-04-12T14:10:10.060Z,4.67
2018-04-12T14:12:37.686Z,3.60
2018-04-12T14:15:05.221Z,5.00
2018-04-12T14:17:32.766Z,4.40
2018-04-12T14:20:00.356Z,4.90
2018-04-12T14:22:27.892Z,4.40
2018-04-12T14:24:55.377Z,3.43
2018-04-12T14:27:22.914Z,3.67
2018-04-12T14:29:50.508Z,3.47
2018-04-12T14:32:18.044Z,3.20
2018-04-12T14:34:45.540Z,3.90
2018-04-12T14:37:13.052Z,4.03
2018-04-12T14:39:40.581Z,2.90
2018-04-12T14:42:08.111Z,3.40
2018-04-12T14:44:35.642Z,3.47
2018-04-12T14:47:03.187Z,3.37
2018-04-12T14:49:30.739Z,3.10
2018-04-12T14:51:58.301Z,3.07
2018-04-12T14:54:25.857Z,3.10
2018-04-12T14:56:53.411Z,4.17
2018-04-12T14:59:20.969Z,2.93
2018-04-12T15:01:48.524Z,3.30
2018-04-12T15:04:16.083Z,3.73
2018-04-12T15:06:43.617Z,3.87
2018-04-12T15:09:11.214Z,3.40
2018-04-12T15:11:38.756Z,3.50
2018-04-12T15:14:06.276Z,3.17
2018-04-12T15:16:33.826Z,2.73
2018-04-12T15:19:01.349Z,3.17
2018-04-12T15:21:28.916Z,3.20
2018-04-12T15:23:56.450Z,4.73
2018-04-12T15:26:24.034Z,4.60
2018-04-12T15:28:51.612Z,4.17
2018-04-12T15:31:19.149Z,4.77
2018-04-12T15:33:46.680Z,4.10
2018-04-12T15:36:14.230Z,5.60
2018-04-12T15:38:41.809Z,4.00
2018-04-12T15:41:09.348Z,4.10
2018-04-12T15:43:36.883Z,3.80
2018-04-12T15:46:04.454Z,4.10
2018-04-12T15:48:31.993Z,4.00
2018-04-12T15:50:59.536Z,3.63
2018-04-12T15:53:27.132Z,4.10
2018-04-12T15:55:54.665Z,4.37
2018-04-12T15:58:22.216Z,3.43
2018-04-12T16:00:49.784Z,2.43
2018-04-12T16:03:17.326Z,3.30
2018-04-12T16:05:44.972Z,4.00
2018-04-12T16:08:12.542Z,3.57
2018-04-12T16:10:40.071Z,3.33
2018-04-12T16:13:07.620Z,3.13
2018-04-12T16:15:35.155Z,3.20
2018-04-12T16:18:02.673Z,2.80
2018-04-12T16:20:30.172Z,2.67
2018-04-12T16:22:57.702Z,1.53
2018-04-12T16:25:25.636Z,2.27
2018-04-12T16:27:53.164Z,3.10
2018-04-12T16:30:20.734Z,1.70
2018-04-12T16:32:48.292Z,2.07
2018-04-12T16:35:15.854Z,2.57
2018-04-12T16:37:43.382Z,4.00
2018-04-12T16:40:10.962Z,2.40
2018-04-12T16:42:38.525Z,2.83
2018-04-12T16:45:06.181Z,2.53
2018-04-12T16:47:33.761Z,2.20
2018-04-12T16:50:01.319Z,2.70
2018-04-12T16:52:28.832Z,3.30
2018-04-12T16:54:56.358Z,6.70
2018-04-12T16:57:23.897Z,3.53
2018-04-12T16:59:51.502Z,3.77
2018-04-12T17:02:19.034Z,3.63
2018-04-12T17:04:46.574Z,3.50
2018-04-12T17:07:14.119Z,3.17
2018-04-12T17:09:41.675Z,3.13
2018-04-12T17:12:09.243Z,3.43
2018-04-12T17:14:36.807Z,4.20
2018-04-12T17:17:04.346Z,2.70
2018-04-12T17:19:31.914Z,3.57
2018-04-12T17:21:59.483Z,4.10
2018-04-12T17:24:27.047Z,3.27
2018-04-12T17:26:54.582Z,3.70
2018-04-12T17:29:22.121Z,3.73
2018-04-12T17:31:49.743Z,4.60
2018-04-12T17:34:17.305Z,4.97
2018-04-12T17:36:44.838Z,3.90
2018-04-12T17:39:12.382Z,4.23
2018-04-12T17:41:39.947Z,3.93
2018-04-12T17:44:07.486Z,5.63
2018-04-12T17:46:35.040Z,3.93
2018-04-12T17:49:02.600Z,4.00
2018-04-12T17:51:30.156Z,4.50
2018-04-12T17:53:57.699Z,4.13
2018-04-12T17:56:25.261Z,4.87
2018-04-12T17:58:52.993Z,3.50
2018-04-12T18:01:20.550Z,4.00
2018-04-12T18:03:48.120Z,3.67
2018-04-12T18:06:15.999Z,5.10
2018-04-12T18:08:43.533Z,3.17
2018-04-12T18:11:11.180Z,4.60
2018-04-12T18:13:38.739Z,2.97
2018-04-12T18:16:06.289Z,4.10
2018-04-12T18:18:33.856Z,2.60
2018-04-12T18:21:01.421Z,2.87
2018-04-12T18:23:28.973Z,2.57
2018-04-12T18:25:56.564Z,2.67
2018-04-12T18:28:24.115Z,1.90
2018-04-12T18:30:51.659Z,2.87
2018-04-12T18:33:19.206Z,3.37
2018-04-12T18:35:46.764Z,2.47
2018-04-12T18:38:14.316Z,2.50
2018-04-12T18:40:41.866Z,2.70
2018-04-12T18:43:09.406Z,2.00
2018-04-12T18:45:36.953Z,1.90
2018-04-12T18:48:04.533Z,1.70
2018-04-12T18:50:32.095Z,2.97
2018-04-12T18:52:59.680Z,2.90
2018-04-12T18:55:27.255Z,1.80
2018-04-12T18:57:54.808Z,1.80
2018-04-12T19:00:22.422Z,1.20
2018-04-12T19:02:49.973Z,1.40
2018-04-12T19:05:17.516Z,2.80
2018-04-12T19:07:45.091Z,2.67
2018-04-12T19:10:12.656Z,2.10
2018-04-12T19:12:40.206Z,1.90
2018-04-12T19:15:07.838Z,1.87
2018-04-12T19:17:35.468Z,2.87
2018-04-12T19:20:03.089Z,2.60
2018-04-12T19:22:30.680Z,2.60
2018-04-12T19:24:58.257Z,3.00
2018-04-12T19:27:25.856Z,1.77
2018-04-12T19:29:53.413Z,2.13
2018-04-12T19:32:21.022Z,2.50
2018-04-12T19:34:48.627Z,3.40
2018-04-12T19:37:16.202Z,8.23
2018-04-12T19:39:43.778Z,3.37
2018-04-12T19:42:11.383Z,3.53
2018-04-12T19:44:38.955Z,1.83
2018-04-12T19:47:06.545Z,3.63
2018-04-12T19:49:34.142Z,9.03
2018-04-12T19:52:02.131Z,2.60
2018-04-12T19:54:29.732Z,2.70
2018-04-12T19:56:57.288Z,3.27
2018-04-12T19:59:25.203Z,3.23
2018-04-12T20:01:52.767Z,2.80
2018-04-12T20:04:20.709Z,2.83
2018-04-12T20:06:48.267Z,4.50
2018-04-12T20:09:15.849Z,6.50
2018-04-12T20:11:43.484Z,12.23
2018-04-12T20:14:11.045Z,7.23
2018-04-12T20:16:38.585Z,6.80
2018-04-12T20:19:06.189Z,14.07
2018-04-12T20:21:33.749Z,9.13
2018-04-12T20:24:01.368Z,5.97
2018-04-12T20:26:29.284Z,12.17
2018-04-12T20:28:56.860Z,5.00
2018-04-12T20:31:24.429Z,4.43
2018-04-12T20:33:51.977Z,4.87
2018-04-12T20:36:19.610Z,5.80
2018-04-12T20:38:47.145Z,6.03
2018-04-12T20:41:14.705Z,4.93
2018-04-12T20:43:42.266Z,4.50
2018-04-12T20:46:09.868Z,3.97
2018-04-12T20:48:37.412Z,4.50
2018-04-12T20:51:04.953Z,3.90
2018-04-12T20:53:32.520Z,5.07
2018-04-12T20:56:00.102Z,4.90
2018-04-12T20:58:27.654Z,5.13
2018-04-12T21:00:55.200Z,5.80
2018-04-12T21:03:22.769Z,3.60
2018-04-12T21:05:50.306Z,3.70
2018-04-12T21:08:17.939Z,3.47
2018-04-12T21:10:45.454Z,2.93
2018-04-12T21:13:12.991Z,2.97
2018-04-12T21:15:40.535Z,2.97
2018-04-12T21:18:08.093Z,3.93
2018-04-12T21:20:35.633Z,3.63
2018-04-12T21:23:03.173Z,3.20
2018-04-12T21:25:30.755Z,3.57
2018-04-12T21:27:58.312Z,3.20
2018-04-12T21:30:25.868Z,4.90
2018-04-12T21:32:53.414Z,4.17
2018-04-12T21:35:20.968Z,3.40
2018-04-12T21:37:48.533Z,4.23
2018-04-12T21:40:16.106Z,3.23
2018-04-12T21:42:43.663Z,3.93
2018-04-12T21:45:11.249Z,3.63
2018-04-12T21:47:38.749Z,4.17
2018-04-12T21:50:06.280Z,4.27
2018-04-12T21:52:33.846Z,3.67
2018-04-12T21:55:01.396Z,3.77
2018-04-12T21:57:28.956Z,4.40
2018-04-12T21:59:56.498Z,4.90
2018-04-12T22:02:24.037Z,4.80
2018-04-12T22:04:52.009Z,10.87
2018-04-12T22:07:19.547Z,8.93
2018-04-12T22:09:47.120Z,33.70
2018-04-12T22:12:14.705Z,19.63
2018-04-12T22:14:42.249Z,6.60
2018-04-12T22:17:09.780Z,5.63
2018-04-12T22:19:37.361Z,3.93
2018-04-12T22:22:04.898Z,4.10
2018-04-12T22:24:32.448Z,14.27
2018-04-12T22:27:00.020Z,6.60
2018-04-12T22:29:27.556Z,4.63
2018-04-12T22:31:55.097Z,4.70
2018-04-12T22:34:22.627Z,4.50
2018-04-12T22:36:50.191Z,15.23
2018-04-12T22:39:17.744Z,12.83
2018-04-12T22:41:45.331Z,16.87
2018-04-12T22:44:12.877Z,11.13
2018-04-12T22:46:40.420Z,11.40
2018-04-12T22:49:07.970Z,7.80
2018-04-12T22:51:35.525Z,13.23
2018-04-12T22:54:03.136Z,5.13
2018-04-12T22:56:30.640Z,6.37
2018-04-12T22:58:58.151Z,5.23
2018-04-12T23:01:25.750Z,6.07
2018-04-12T23:03:53.328Z,5.30
2018-04-12T23:06:20.909Z,5.43
2018-04-12T23:08:48.469Z,6.43
2018-04-12T23:11:16.064Z,5.20
2018-04-12T23:13:43.621Z,4.70
2018-04-12T23:16:11.170Z,4.57
2018-04-12T23:18:38.730Z,5.23
2018-04-12T23:21:06.258Z,4.87
2018-04-12T23:23:33.828Z,4.73
2018-04-12T23:26:01.391Z,5.03
2018-04-12T23:28:28.969Z,6.13
2018-04-12T23:30:56.533Z,6.07
2018-04-12T23:33:24.129Z,6.10
2018-04-12T23:35:51.694Z,4.70
2018-04-12T23:38:19.233Z,5.53
2018-04-12T23:40:46.796Z,4.87
2018-04-12T23:43:14.338Z,5.70
2018-04-12T23:45:41.923Z,11.77
2018-04-12T23:48:09.457Z,18.30
2018-04-12T23:50:36.999Z,11.80
2018-04-12T23:53:04.580Z,11.43
2018-04-12T23:55:32.123Z,6.60
2018-04-12T23:57:59.672Z,4.77
